createdAt,value
2017-09-29T00:00:53.010Z,81.50
2017-09-29T00:03:22.381Z,80.23
2017-09-29T00:05:51.614Z,70.43
2017-09-29T00:08:21.083Z,63.17
2017-09-29T00:10:50.515Z,75.87
2017-09-29T00:13:20.573Z,71.47
2017-09-29T00:15:49.946Z,84.63
2017-09-29T00:18:19.486Z,95.80
2017-09-29T00:20:48.820Z,71.70
2017-09-29T00:23:18.049Z,87.10
2017-09-29T00:25:48.099Z,82.60
2017-09-29T00:28:18.590Z,77.10
2017-09-29T00:30:47.759Z,79.73
2017-09-29T00:33:16.933Z,88.67
2017-09-29T00:35:46.258Z,73.03
2017-09-29T00:38:16.256Z,91.73
2017-09-29T00:40:45.438Z,89.20
2017-09-29T00:43:14.967Z,82.13
2017-09-29T00:45:44.124Z,69.23
2017-09-29T00:48:14.167Z,97.27
2017-09-29T00:50:43.539Z,85.03
2017-09-29T00:53:12.723Z,81.73
2017-09-29T00:55:41.868Z,85.33
2017-09-29T00:58:11.851Z,74.17
2017-09-29T01:00:40.969Z,78.07
2017-09-29T01:03:10.166Z,74.27
2017-09-29T01:05:39.762Z,80.47
2017-09-29T01:08:08.972Z,82.10
2017-09-29T01:10:38.175Z,73.70
2017-09-29T01:13:07.672Z,75.53
2017-09-29T01:15:37.635Z,68.27
2017-09-29T01:18:06.819Z,77.93
2017-09-29T01:20:36.271Z,82.37
2017-09-29T01:23:05.968Z,71.73
2017-09-29T01:25:35.201Z,84.50
2017-09-29T01:28:04.405Z,80.17
2017-09-29T01:30:34.329Z,69.57
2017-09-29T01:33:03.482Z,68.33
2017-09-29T01:35:33.593Z,75.87
2017-09-29T01:38:02.784Z,94.97
2017-09-29T01:40:33.715Z,86.03
2017-09-29T01:43:03.286Z,82.67
2017-09-29T01:45:33.207Z,92.43
2017-09-29T01:48:02.435Z,90.27
2017-09-29T01:50:31.761Z,75.93
2017-09-29T01:53:01.742Z,72.63
2017-09-29T01:55:31.138Z,68.70
2017-09-29T01:58:00.810Z,71.43
2017-09-29T02:00:30.185Z,70.37
2017-09-29T02:02:59.438Z,73.67
2017-09-29T02:05:29.011Z,77.43
2017-09-29T02:07:58.264Z,72.27
2017-09-29T02:10:27.607Z,75.60
2017-09-29T02:12:57.358Z,70.53
2017-09-29T02:15:27.684Z,73.60
2017-09-29T02:17:56.962Z,72.27
2017-09-29T02:20:27.530Z,73.43
2017-09-29T02:22:56.810Z,79.73
2017-09-29T02:25:27.015Z,82.40
2017-09-29T02:27:56.323Z,65.13
2017-09-29T02:30:26.384Z,74.70
2017-09-29T02:32:55.754Z,72.60
2017-09-29T02:35:25.162Z,74.50
2017-09-29T02:37:54.520Z,81.60
2017-09-29T02:40:24.568Z,74.60
2017-09-29T02:42:54.346Z,69.50
2017-09-29T02:45:23.679Z,66.00
2017-09-29T02:47:53.293Z,74.67
2017-09-29T02:50:22.898Z,70.03
2017-09-29T02:52:52.182Z,73.03
2017-09-29T02:55:21.809Z,70.47
2017-09-29T02:57:57.007Z,69.07
2017-09-29T03:00:36.230Z,68.80
2017-09-29T03:03:07.990Z,76.03
2017-09-29T03:05:38.716Z,64.63
2017-09-29T03:08:07.903Z,80.10
2017-09-29T03:10:37.221Z,59.83
2017-09-29T03:13:06.368Z,65.63
2017-09-29T03:15:35.719Z,73.37
2017-09-29T03:18:04.896Z,64.53
2017-09-29T03:20:34.809Z,68.50
2017-09-29T03:23:03.982Z,70.77
2017-09-29T03:25:34.422Z,70.77
2017-09-29T03:28:03.579Z,69.10
2017-09-29T03:30:32.758Z,67.03
2017-09-29T03:33:02.950Z,63.97
2017-09-29T03:35:32.094Z,66.20
2017-09-29T03:38:01.302Z,63.47
2017-09-29T03:40:31.952Z,76.90
2017-09-29T03:43:01.123Z,57.50
2017-09-29T03:45:31.101Z,59.87
2017-09-29T03:48:00.656Z,58.13
2017-09-29T03:50:34.414Z,57.53
2017-09-29T03:53:05.795Z,54.67
2017-09-29T03:55:38.683Z,60.20
2017-09-29T03:58:08.772Z,72.93
2017-09-29T04:00:38.069Z,58.10
2017-09-29T04:03:07.183Z,59.00
2017-09-29T04:05:36.775Z,60.80
2017-09-29T04:08:05.886Z,59.07
2017-09-29T04:10:35.045Z,57.63
2017-09-29T04:13:05.615Z,62.60
2017-09-29T04:15:34.796Z,57.03
2017-09-29T04:18:04.005Z,58.13
2017-09-29T04:20:34.419Z,63.63
2017-09-29T04:23:03.690Z,57.40
2017-09-29T04:25:32.939Z,60.83
2017-09-29T04:28:03.008Z,67.27
2017-09-29T04:30:33.100Z,60.87
2017-09-29T04:33:02.488Z,57.80
2017-09-29T04:35:32.238Z,64.60
2017-09-29T04:38:01.738Z,74.23
2017-09-29T04:40:31.098Z,83.17
2017-09-29T04:43:00.680Z,62.90
2017-09-29T04:45:29.957Z,80.30
2017-09-29T04:47:59.154Z,67.30
2017-09-29T04:50:28.592Z,86.43
2017-09-29T04:52:58.443Z,74.67
2017-09-29T04:55:28.949Z,68.33
2017-09-29T04:57:59.549Z,79.07
2017-09-29T05:00:29.280Z,70.13
2017-09-29T05:02:58.847Z,88.17
2017-09-29T05:05:28.224Z,75.23
2017-09-29T05:07:57.586Z,72.83
2017-09-29T05:10:26.921Z,73.73
2017-09-29T05:12:56.501Z,79.97
2017-09-29T05:15:26.021Z,75.90
2017-09-29T05:17:55.432Z,79.50
2017-09-29T05:20:25.524Z,88.73
2017-09-29T05:22:55.057Z,83.23
2017-09-29T05:25:24.556Z,76.33
2017-09-29T05:27:54.264Z,67.30
2017-09-29T05:30:23.835Z,84.17
2017-09-29T05:32:53.696Z,73.20
2017-09-29T05:35:24.533Z,77.07
2017-09-29T05:37:54.039Z,69.77
2017-09-29T05:40:23.433Z,75.10
2017-09-29T05:42:53.969Z,69.53
2017-09-29T05:45:24.600Z,73.43
2017-09-29T05:47:55.330Z,68.33
2017-09-29T05:50:24.628Z,78.63
2017-09-29T05:52:53.936Z,72.00
2017-09-29T05:55:23.946Z,79.47
2017-09-29T05:57:53.240Z,78.80
2017-09-29T06:00:22.451Z,65.23
2017-09-29T06:02:51.919Z,72.73
2017-09-29T06:05:21.738Z,76.47
2017-09-29T06:07:51.169Z,73.30
2017-09-29T06:10:21.266Z,77.73
2017-09-29T06:12:50.952Z,72.83
2017-09-29T06:15:20.863Z,79.37
2017-09-29T06:17:51.189Z,65.10
2017-09-29T06:20:20.842Z,76.33
2017-09-29T06:22:53.423Z,90.27
2017-09-29T06:25:24.161Z,72.43
2017-09-29T06:27:53.694Z,68.60
2017-09-29T06:30:23.219Z,79.60
2017-09-29T06:32:53.574Z,85.77
2017-09-29T06:35:22.895Z,76.73
2017-09-29T06:37:54.708Z,68.37
2017-09-29T06:40:26.063Z,81.77
2017-09-29T06:43:06.113Z,70.03
2017-09-29T06:45:36.018Z,65.80
2017-09-29T06:48:05.423Z,63.00
2017-09-29T06:50:34.618Z,83.97
2017-09-29T06:53:03.744Z,63.60
2017-09-29T06:55:32.987Z,74.33
2017-09-29T06:58:02.156Z,69.27
2017-09-29T07:00:32.358Z,59.10
2017-09-29T07:03:02.756Z,64.87
2017-09-29T07:05:31.920Z,57.27
2017-09-29T07:08:01.254Z,64.63
2017-09-29T07:10:30.863Z,64.77
2017-09-29T07:13:00.088Z,58.87
2017-09-29T07:15:29.557Z,72.10
2017-09-29T07:17:58.744Z,55.50
2017-09-29T07:20:28.062Z,55.73
2017-09-29T07:23:00.721Z,59.37
2017-09-29T07:25:31.268Z,53.77
2017-09-29T07:28:04.436Z,60.07
2017-09-29T07:30:34.149Z,54.70
2017-09-29T07:33:03.368Z,57.70
2017-09-29T07:35:33.406Z,50.00
2017-09-29T07:38:03.316Z,55.90
2017-09-29T07:40:32.470Z,60.60
2017-09-29T07:43:02.119Z,61.13
2017-09-29T07:45:31.303Z,53.13
2017-09-29T07:48:00.442Z,57.13
2017-09-29T07:50:30.598Z,54.80
2017-09-29T07:52:59.769Z,58.53
2017-09-29T07:55:28.904Z,61.07
2017-09-29T07:57:58.951Z,60.00
2017-09-29T08:00:28.280Z,64.07
2017-09-29T08:02:57.573Z,53.57
2017-09-29T08:05:26.960Z,70.07
2017-09-29T08:07:56.351Z,57.27
2017-09-29T08:10:27.042Z,76.87
2017-09-29T08:12:56.324Z,51.03
2017-09-29T08:15:26.468Z,55.50
2017-09-29T08:17:55.948Z,60.33
2017-09-29T08:20:25.194Z,55.37
2017-09-29T08:22:55.829Z,63.43
2017-09-29T08:25:25.252Z,45.60
2017-09-29T08:27:54.446Z,54.03
2017-09-29T08:30:25.259Z,60.17
2017-09-29T08:32:56.034Z,76.03
2017-09-29T08:35:26.318Z,64.23
2017-09-29T08:37:55.695Z,60.37
2017-09-29T08:40:25.667Z,63.60
2017-09-29T08:42:55.470Z,53.27
2017-09-29T08:45:24.770Z,52.20
2017-09-29T08:47:54.246Z,49.90
2017-09-29T08:50:24.648Z,53.40
2017-09-29T08:52:54.696Z,54.50
2017-09-29T08:55:24.615Z,49.83
2017-09-29T08:57:57.936Z,192.93
2017-09-29T09:00:27.100Z,58.27
2017-09-29T09:02:57.492Z,56.93
2017-09-29T09:05:26.617Z,69.83
2017-09-29T09:07:56.100Z,47.20
2017-09-29T09:10:26.704Z,62.73
2017-09-29T09:12:55.894Z,48.90
2017-09-29T09:15:25.200Z,55.73
2017-09-29T09:17:54.739Z,42.47
2017-09-29T09:20:24.060Z,48.57
2017-09-29T09:22:57.859Z,49.57
2017-09-29T09:25:27.011Z,51.50
2017-09-29T09:27:56.206Z,52.33
2017-09-29T09:30:28.011Z,48.33
2017-09-29T09:32:57.776Z,44.00
2017-09-29T09:35:27.129Z,51.37
2017-09-29T09:37:56.660Z,54.13
2017-09-29T09:40:25.879Z,45.70
2017-09-29T09:42:56.085Z,45.23
2017-09-29T09:45:25.557Z,52.73
2017-09-29T09:47:54.783Z,52.70
2017-09-29T09:50:24.344Z,56.97
2017-09-29T09:52:54.401Z,44.90
2017-09-29T09:55:24.298Z,144.83
2017-09-29T09:57:53.558Z,55.73
2017-09-29T10:00:22.944Z,50.17
2017-09-29T10:02:52.557Z,56.33
2017-09-29T10:05:22.567Z,37.03
2017-09-29T10:07:52.783Z,45.90
2017-09-29T10:10:23.419Z,47.13
2017-09-29T10:12:52.707Z,37.10
2017-09-29T10:15:22.688Z,41.20
2017-09-29T10:17:53.229Z,59.93
2017-09-29T10:20:22.548Z,40.70
2017-09-29T10:22:51.981Z,33.10
2017-09-29T10:25:22.920Z,41.00
2017-09-29T10:27:53.219Z,44.33
2017-09-29T10:30:23.037Z,41.57
2017-09-29T10:32:52.495Z,47.77
2017-09-29T10:35:21.962Z,66.60
2017-09-29T10:37:51.933Z,47.53
2017-09-29T10:40:22.461Z,48.30
2017-09-29T10:42:53.717Z,49.60
2017-09-29T10:45:25.769Z,49.43
2017-09-29T10:47:55.183Z,55.00
2017-09-29T10:50:30.109Z,52.23
2017-09-29T10:53:00.959Z,60.33
2017-09-29T10:55:33.405Z,46.23
2017-09-29T10:58:15.516Z,41.30
2017-09-29T11:00:56.717Z,45.80
2017-09-29T11:03:27.084Z,45.97
2017-09-29T11:06:00.719Z,50.00
2017-09-29T11:08:32.068Z,43.33
2017-09-29T11:11:03.514Z,39.57
2017-09-29T11:13:39.951Z,39.93
2017-09-29T11:16:12.252Z,45.47
2017-09-29T11:18:43.722Z,45.73
2017-09-29T11:21:21.017Z,51.47
2017-09-29T11:23:52.034Z,38.07
2017-09-29T11:29:02.827Z,43.07
2017-09-29T11:31:37.871Z,56.80
2017-09-29T11:34:07.999Z,44.23
2017-09-29T11:36:46.970Z,36.53
2017-09-29T11:39:28.209Z,52.10
2017-09-29T11:41:59.628Z,41.40
2017-09-29T11:44:28.747Z,42.57
2017-09-29T11:46:58.717Z,43.63
2017-09-29T11:49:32.824Z,44.13
2017-09-29T11:52:07.995Z,53.13
2017-09-29T11:54:51.830Z,52.17
2017-09-29T11:57:24.042Z,46.17
2017-09-29T11:59:53.527Z,56.83
2017-09-29T12:02:27.600Z,46.87
2017-09-29T12:04:57.163Z,54.90
2017-09-29T12:07:27.962Z,46.30
2017-09-29T12:10:01.482Z,47.83
2017-09-29T12:12:30.694Z,44.90
2017-09-29T12:15:00.085Z,43.03
2017-09-29T12:17:29.972Z,48.60
2017-09-29T12:20:00.380Z,53.13
2017-09-29T12:22:30.033Z,48.40
2017-09-29T12:24:59.197Z,52.17
2017-09-29T12:27:30.763Z,40.97
2017-09-29T12:30:04.874Z,46.40
2017-09-29T12:32:35.205Z,48.43
2017-09-29T12:35:09.010Z,41.70
2017-09-29T12:37:40.153Z,42.63
2017-09-29T12:40:13.892Z,51.67
2017-09-29T12:42:43.078Z,47.17
2017-09-29T12:47:43.876Z,43.23
2017-09-29T12:50:17.344Z,44.93
2017-09-29T12:52:50.319Z,44.60
2017-09-29T12:55:28.822Z,44.23
2017-09-29T12:57:59.302Z,53.70
2017-09-29T13:00:32.140Z,54.50
2017-09-29T13:03:01.966Z,43.20
2017-09-29T13:05:33.442Z,52.57
2017-09-29T13:08:02.697Z,46.33
2017-09-29T13:10:31.838Z,49.87
2017-09-29T13:13:01.467Z,55.50
2017-09-29T13:15:31.410Z,48.87
2017-09-29T13:18:00.681Z,45.37
2017-09-29T13:20:29.882Z,50.87
2017-09-29T13:23:01.105Z,52.80
2017-09-29T13:25:30.529Z,56.37
2017-09-29T13:28:00.524Z,53.70
2017-09-29T13:30:29.784Z,50.77
2017-09-29T13:32:59.696Z,54.47
2017-09-29T13:35:29.198Z,61.13
2017-09-29T13:37:59.106Z,67.80
2017-09-29T13:40:28.660Z,51.07
2017-09-29T13:42:57.889Z,51.80
2017-09-29T13:45:28.120Z,53.40
2017-09-29T13:47:57.860Z,51.53
2017-09-29T13:50:27.027Z,52.73
2017-09-29T13:52:56.365Z,51.33
2017-09-29T13:55:25.959Z,54.13
2017-09-29T13:57:55.236Z,51.43
2017-09-29T14:00:25.292Z,49.17
2017-09-29T14:02:54.787Z,51.70
2017-09-29T14:05:23.991Z,59.20
2017-09-29T14:07:53.149Z,47.93
2017-09-29T14:10:23.479Z,51.27
2017-09-29T14:12:53.417Z,59.83
2017-09-29T14:15:22.670Z,48.00
2017-09-29T14:17:52.391Z,47.40
2017-09-29T14:20:22.236Z,54.60
2017-09-29T14:22:51.610Z,47.83
2017-09-29T14:25:21.245Z,53.20
2017-09-29T14:27:50.725Z,54.07
2017-09-29T14:30:20.715Z,56.03
2017-09-29T14:32:51.034Z,48.60
2017-09-29T14:35:21.024Z,57.93
2017-09-29T14:37:52.495Z,47.47
2017-09-29T14:40:21.747Z,63.57
2017-09-29T14:42:51.145Z,47.00
2017-09-29T14:45:20.581Z,46.07
2017-09-29T14:47:49.780Z,52.80
2017-09-29T14:50:18.894Z,54.67
2017-09-29T14:52:48.504Z,48.60
2017-09-29T14:55:17.694Z,58.63
2017-09-29T14:57:47.595Z,48.20
2017-09-29T15:00:16.863Z,60.73
2017-09-29T15:02:45.989Z,47.17
2017-09-29T15:05:15.102Z,50.03
2017-09-29T15:07:44.397Z,50.30
2017-09-29T15:10:13.547Z,45.30
2017-09-29T15:12:42.652Z,57.20
2017-09-29T15:15:13.555Z,53.20
2017-09-29T15:17:42.678Z,50.77
2017-09-29T15:20:13.288Z,43.23
2017-09-29T15:22:43.342Z,50.80
2017-09-29T15:25:12.462Z,43.27
2017-09-29T15:27:41.714Z,50.30
2017-09-29T15:30:11.270Z,42.77
2017-09-29T15:32:42.551Z,48.63
2017-09-29T15:35:12.770Z,47.53
2017-09-29T15:37:42.529Z,52.57
2017-09-29T15:40:11.723Z,63.07
2017-09-29T15:42:43.864Z,52.33
2017-09-29T15:45:14.070Z,53.17
2017-09-29T15:47:44.006Z,45.73
2017-09-29T15:50:19.615Z,42.73
2017-09-29T15:52:53.344Z,45.63
2017-09-29T15:55:22.858Z,48.40
2017-09-29T15:57:53.130Z,46.10
2017-09-29T16:00:24.082Z,70.37
2017-09-29T16:02:58.806Z,63.90
2017-09-29T16:05:28.411Z,55.97
2017-09-29T16:07:57.605Z,57.63
2017-09-29T16:10:29.295Z,43.70
2017-09-29T16:12:58.626Z,51.00
2017-09-29T16:15:27.872Z,50.53
2017-09-29T16:17:57.035Z,49.03
2017-09-29T16:20:27.393Z,60.43
2017-09-29T16:22:57.740Z,50.90
2017-09-29T16:25:27.116Z,46.70
2017-09-29T16:27:56.693Z,58.40
2017-09-29T16:30:31.839Z,52.97
2017-09-29T16:33:01.442Z,55.93
2017-09-29T16:35:33.499Z,57.60
2017-09-29T16:38:03.134Z,60.97
2017-09-29T16:40:32.310Z,62.30
2017-09-29T16:43:01.452Z,57.87
2017-09-29T16:45:31.391Z,50.20
2017-09-29T16:48:00.486Z,53.13
2017-09-29T16:50:34.030Z,56.03
2017-09-29T16:53:03.197Z,58.53
2017-09-29T16:55:32.378Z,59.60
2017-09-29T16:58:01.761Z,141.93
2017-09-29T17:00:31.736Z,85.30
2017-09-29T17:03:00.891Z,55.80
2017-09-29T17:05:30.439Z,50.30
2017-09-29T17:08:00.428Z,57.03
2017-09-29T17:10:29.637Z,51.77
2017-09-29T17:12:59.244Z,57.33
2017-09-29T17:15:28.579Z,56.33
2017-09-29T17:17:57.858Z,46.87
2017-09-29T17:20:27.409Z,50.83
2017-09-29T17:22:57.543Z,51.03
2017-09-29T17:25:26.747Z,52.40
2017-09-29T17:27:59.079Z,50.60
2017-09-29T17:30:28.438Z,59.30
2017-09-29T17:33:00.505Z,61.03
2017-09-29T17:35:29.776Z,52.03
2017-09-29T17:37:58.957Z,54.43
2017-09-29T17:40:28.388Z,49.47
2017-09-29T17:42:58.469Z,50.50
2017-09-29T17:45:27.862Z,57.03
2017-09-29T17:47:57.302Z,50.60
2017-09-29T17:50:26.489Z,63.93
2017-09-29T17:52:56.585Z,56.83
2017-09-29T17:55:26.682Z,66.17
2017-09-29T17:57:57.742Z,60.10
2017-09-29T18:00:26.971Z,59.93
2017-09-29T18:02:56.236Z,57.70
2017-09-29T18:05:25.473Z,50.70
2017-09-29T18:07:55.652Z,53.10
2017-09-29T18:10:25.920Z,62.00
2017-09-29T18:12:55.859Z,53.77
2017-09-29T18:15:26.061Z,69.17
2017-09-29T18:17:56.698Z,57.40
2017-09-29T18:20:26.150Z,52.50
2017-09-29T18:22:55.434Z,55.67
2017-09-29T18:25:25.835Z,50.23
2017-09-29T18:27:55.895Z,62.37
2017-09-29T18:30:25.258Z,52.57
2017-09-29T18:32:54.705Z,58.33
2017-09-29T18:35:23.958Z,52.13
2017-09-29T18:37:54.115Z,54.67
2017-09-29T18:40:26.897Z,52.80
2017-09-29T18:43:07.820Z,50.50
2017-09-29T18:45:47.656Z,55.70
2017-09-29T18:48:17.105Z,58.10
2017-09-29T18:50:47.724Z,49.63
2017-09-29T18:53:17.731Z,48.37
2017-09-29T18:55:47.613Z,53.40
2017-09-29T18:58:17.526Z,48.27
2017-09-29T19:00:48.430Z,47.03
2017-09-29T19:03:17.611Z,44.47
2017-09-29T19:05:46.735Z,40.57
2017-09-29T19:08:16.268Z,42.00
2017-09-29T19:10:45.368Z,45.23
2017-09-29T19:13:14.489Z,41.33
2017-09-29T19:15:43.927Z,54.40
2017-09-29T19:18:13.054Z,44.80
2017-09-29T19:20:42.170Z,40.73
2017-09-29T19:23:12.405Z,43.57
2017-09-29T19:25:42.254Z,41.67
2017-09-29T19:28:11.406Z,57.23
2017-09-29T19:30:41.607Z,49.50
2017-09-29T19:33:11.490Z,41.07
2017-09-29T19:35:41.401Z,33.50
2017-09-29T19:38:11.822Z,38.67
2017-09-29T19:40:40.925Z,44.73
2017-09-29T19:43:10.049Z,38.27
2017-09-29T19:45:40.310Z,42.50
2017-09-29T19:48:09.441Z,33.10
2017-09-29T19:50:38.546Z,50.13
2017-09-29T19:53:08.668Z,36.50
2017-09-29T19:55:37.762Z,36.63
2017-09-29T19:58:06.868Z,38.77
2017-09-29T20:00:36.349Z,44.63
2017-09-29T20:03:05.487Z,35.93
2017-09-29T20:05:34.643Z,31.87
2017-09-29T20:08:03.990Z,45.83
2017-09-29T20:10:33.120Z,31.10
2017-09-29T20:13:03.683Z,39.67
2017-09-29T20:15:35.049Z,31.27
2017-09-29T20:18:04.181Z,32.07
2017-09-29T20:20:33.298Z,28.20
2017-09-29T20:23:03.226Z,37.53
2017-09-29T20:25:32.698Z,32.70
2017-09-29T20:28:01.825Z,32.70
2017-09-29T20:30:31.132Z,31.10
2017-09-29T20:33:00.405Z,37.77
2017-09-29T20:35:29.506Z,37.27
2017-09-29T20:37:58.755Z,29.20
2017-09-29T20:40:27.884Z,34.03
2017-09-29T20:42:57.036Z,44.83
2017-09-29T20:45:26.592Z,37.80
2017-09-29T20:47:56.545Z,48.37
2017-09-29T20:50:25.841Z,32.20
2017-09-29T20:52:55.444Z,41.03
2017-09-29T20:55:24.687Z,39.70
2017-09-29T20:57:53.952Z,37.57
2017-09-29T21:00:23.372Z,40.97
2017-09-29T21:02:52.588Z,35.33
2017-09-29T21:05:22.531Z,40.13
2017-09-29T21:07:51.868Z,61.97
2017-09-29T21:10:21.068Z,39.43
2017-09-29T21:12:51.081Z,27.50
2017-09-29T21:15:20.298Z,36.00
2017-09-29T21:17:49.544Z,34.20
2017-09-29T21:20:19.591Z,33.23
2017-09-29T21:22:48.950Z,41.20
2017-09-29T21:25:18.107Z,29.57
2017-09-29T21:27:47.213Z,36.73
2017-09-29T21:30:16.650Z,31.20
2017-09-29T21:32:45.747Z,32.93
2017-09-29T21:35:14.846Z,61.97
2017-09-29T21:37:44.223Z,38.93
2017-09-29T21:40:14.119Z,37.97
2017-09-29T21:42:43.239Z,40.40
2017-09-29T21:45:12.610Z,34.27
2017-09-29T21:47:42.503Z,36.70
2017-09-29T21:50:13.030Z,42.87
2017-09-29T21:52:42.321Z,32.63
2017-09-29T21:55:11.451Z,32.57
2017-09-29T21:57:40.570Z,42.07
2017-09-29T22:00:10.485Z,28.27
2017-09-29T22:02:39.636Z,33.30
2017-09-29T22:05:08.773Z,34.50
2017-09-29T22:07:38.080Z,33.90
2017-09-29T22:10:07.194Z,31.03
2017-09-29T22:12:37.114Z,33.47
2017-09-29T22:15:06.542Z,30.87
2017-09-29T22:17:35.663Z,61.20
2017-09-29T22:20:04.810Z,38.33
2017-09-29T22:22:34.272Z,39.07
2017-09-29T22:25:03.401Z,32.57
2017-09-29T22:27:32.509Z,30.77
2017-09-29T22:30:01.987Z,34.70
2017-09-29T22:32:31.858Z,36.50
2017-09-29T22:35:00.947Z,32.97
2017-09-29T22:37:31.474Z,37.97
2017-09-29T22:40:01.373Z,38.57
2017-09-29T22:42:31.286Z,39.47
2017-09-29T22:45:05.455Z,33.17
2017-09-29T22:47:46.436Z,38.23
2017-09-29T22:50:16.227Z,31.20
2017-09-29T22:52:46.889Z,36.90
2017-09-29T22:55:16.816Z,36.87
2017-09-29T22:57:46.121Z,35.93
2017-09-29T23:00:16.504Z,40.33
2017-09-29T23:02:46.832Z,31.17
2017-09-29T23:05:19.923Z,39.50
2017-09-29T23:07:51.456Z,34.40
2017-09-29T23:10:21.700Z,30.90
2017-09-29T23:12:51.817Z,34.87
2017-09-29T23:15:21.086Z,42.47
2017-09-29T23:17:50.234Z,45.17
2017-09-29T23:20:19.899Z,32.23
2017-09-29T23:22:49.123Z,33.73
2017-09-29T23:25:18.467Z,34.80
2017-09-29T23:27:47.580Z,43.53
2017-09-29T23:30:16.668Z,52.60
2017-09-29T23:32:46.945Z,34.30
2017-09-29T23:35:16.039Z,31.70
2017-09-29T23:37:45.925Z,36.80
2017-09-29T23:40:15.280Z,37.27
2017-09-29T23:42:44.403Z,38.60
2017-09-29T23:45:14.315Z,37.07
2017-09-29T23:47:44.555Z,45.03
2017-09-29T23:50:13.697Z,37.73
2017-09-29T23:52:43.591Z,37.50
2017-09-29T23:55:13.587Z,45.37
2017-09-29T23:57:42.694Z,39.90
